Main page
METAR-TAF:

METAR-TAF

Airports :

Bassatine Air Base

Meknes, Morocco

latitude: 33-53N, longitude: 005-32W, elevation: 576 m

Current weather observation

The report was made 1 hour and 0 minutes ago, at 07:00 UTC
Wind 10 kt from the South
Temperature 6°C
Humidity 81%
Pressure 1019 hPa
Visibility 10 km or more
no clouds below 1500 m and no cumulonimbus

METAR: GMFM 080700Z 18010KT CAVOK 06/03 Q1019 NOSIG

Time: 09:00 (08:00 UTC)

Forecast

The report was made 3 hours and 0 minutes ago, at 05:00 UTC
Forecast valid from 08 at 06 UTC to 09 at 12 UTC
Wind 10 kt from the South
Visibility 10 km or more
no clouds below 1500 m and no cumulonimbus
Becoming
from 08 at 09 UTC to 08 at 13 UTC
Scattered clouds at a height of 2000 ft
Scattered clouds at a height of 10000 ft
Temporary
from 08 at 12 UTC to 08 at 19 UTC
Wind 12 kt from the West/Northwest

TAF: GMFM 080500Z 0806/0912 17010KT CAVOK BECMG 0809/0813 SCT020 SCT100 TEMPO 0812/0819 30012KT

Weather observations and forecasts of more than 4000 airports (METAR and TAF reports).

The available stations are represented by yellow and red dots on the map.

Hover mouse over dot to see the name of the station.

Then click to see weather observations and forecasts.

To change the map : click on the green buttons with a black cross to zoom in, on the green button with a dash to zoom out, or on the green arrows for adjacent maps.


METAR-TAF: